Ari, Indiana
Current Conditions -  °F | °C
As of 2:55 PM on Saturday 25 Oct 2014 (Local Time) from KGWB Reporting Station
Clear Clear  
Wind Chill: 66°   Ceiling: Unl
Heat Index: 66°   Visibility: 10mi
Dew Point: 50°   Wind: 10mph
Humidity: 56%   Direction: 270°W
Pressure: 29.88"   Gusts: 21mph
Location:  41.225°N, 85.325°W
Report Text: KGWB 251855Z AUTO 27009G18KT 10SM CLR 19/10 A2988 RMK AO2
Loading
Personal Weather Stations






























Interactive Weather Map
Tropical Storm Tracking
New forecast layout! Learn more

10-Day Weather Forecast

Advertisements
Track Severe Weather on mobile